sensor_id;sensor_type;location;lat;lon;timestamp;pressure;altitude;pressure_sealevel;temperature;humidity
84779;BME280;75010;50.866;20.620;2024-01-30T00:00:15;1007;;;-0.4;93
84779;BME280;75010;50.866;20.620;2024-01-30T00:10:08;1007;;;-0.4;93
84779;BME280;75010;50.866;20.620;2024-01-30T00:20:13;1007;;;-0.5;93
84779;BME280;75010;50.866;20.620;2024-01-30T00:30:07;1007;;;-0.7;93
84779;BME280;75010;50.866;20.620;2024-01-30T00:40:11;1007;;;-1;94
84779;BME280;75010;50.866;20.620;2024-01-30T00:50:14;1007;;;-1.1;94
84779;BME280;75010;50.866;20.620;2024-01-30T01:00:03;1007;;;-1.1;94
84779;BME280;75010;50.866;20.620;2024-01-30T01:10:19;1007;;;-1.2;94
84779;BME280;75010;50.866;20.620;2024-01-30T01:20:14;1007;;;-1.3;95
84779;BME280;75010;50.866;20.620;2024-01-30T01:30:20;1007;;;-1.4;95
84779;BME280;75010;50.866;20.620;2024-01-30T01:40:11;1007;;;-1.4;95
84779;BME280;75010;50.866;20.620;2024-01-30T01:50:08;1006;;;-1.4;95
84779;BME280;75010;50.866;20.620;2024-01-30T02:00:05;1006;;;-1.5;95
84779;BME280;75010;50.866;20.620;2024-01-30T02:10:07;1006;;;-1.6;95
84779;BME280;75010;50.866;20.620;2024-01-30T02:20:11;1006;;;-1.7;95
84779;BME280;75010;50.866;20.620;2024-01-30T02:30:12;1006;;;-1.7;95
84779;BME280;75010;50.866;20.620;2024-01-30T02:40:15;1006;;;-1.7;95
84779;BME280;75010;50.866;20.620;2024-01-30T02:50:09;1006;;;-1.8;95
84779;BME280;75010;50.866;20.620;2024-01-30T03:00:21;1006;;;-1.8;95
84779;BME280;75010;50.866;20.620;2024-01-30T03:10:08;1006;;;-1.9;95
84779;BME280;75010;50.866;20.620;2024-01-30T03:20:10;1006;;;-2;95
84779;BME280;75010;50.866;20.620;2024-01-30T03:30:13;1006;;;-2;95
84779;BME280;75010;50.866;20.620;2024-01-30T03:40:04;1006;;;-2;95
84779;BME280;75010;50.866;20.620;2024-01-30T03:50:12;1006;;;-2.1;95
84779;BME280;75010;50.866;20.620;2024-01-30T04:00:08;1006;;;-2.1;95
84779;BME280;75010;50.866;20.620;2024-01-30T04:10:09;1006;;;-2.2;96
84779;BME280;75010;50.866;20.620;2024-01-30T04:20:16;1006;;;-2.2;96
84779;BME280;75010;50.866;20.620;2024-01-30T04:30:14;1006;;;-2.2;95
84779;BME280;75010;50.866;20.620;2024-01-30T04:40:09;1006;;;-2.2;95
84779;BME280;75010;50.866;20.620;2024-01-30T04:50:17;1006;;;-2.2;96
84779;BME280;75010;50.866;20.620;2024-01-30T05:00:18;1006;;;-2.2;96
84779;BME280;75010;50.866;20.620;2024-01-30T05:10:12;1006;;;-2.2;96
84779;BME280;75010;50.866;20.620;2024-01-30T05:20:12;1006;;;-2.2;96
84779;BME280;75010;50.866;20.620;2024-01-30T05:30:07;1006;;;-2.2;96
84779;BME280;75010;50.866;20.620;2024-01-30T05:40:03;1006;;;-2.2;96
84779;BME280;75010;50.866;20.620;2024-01-30T05:50:10;1006;;;-2.2;96
84779;BME280;75010;50.866;20.620;2024-01-30T06:00:16;1006;;;-2.2;96
84779;BME280;75010;50.866;20.620;2024-01-30T06:10:17;1006;;;-2.2;96
84779;BME280;75010;50.866;20.620;2024-01-30T06:20:10;1006;;;-2.1;96
84779;BME280;75010;50.866;20.620;2024-01-30T06:30:16;1006;;;-2.1;96
84779;BME280;75010;50.866;20.620;2024-01-30T06:40:11;1006;;;-2.1;96
84779;BME280;75010;50.866;20.620;2024-01-30T06:50:07;1006;;;-2;95
84779;BME280;75010;50.866;20.620;2024-01-30T07:00:08;1006;;;-2;95
84779;BME280;75010;50.866;20.620;2024-01-30T07:10:13;1006;;;-1.7;95
84779;BME280;75010;50.866;20.620;2024-01-30T07:20:03;1006;;;-1.7;95
84779;BME280;75010;50.866;20.620;2024-01-30T07:30:14;1006;;;-1.6;94
84779;BME280;75010;50.866;20.620;2024-01-30T07:40:14;1006;;;-1.6;94
84779;BME280;75010;50.866;20.620;2024-01-30T07:50:17;1006;;;-0.6;94
84779;BME280;75010;50.866;20.620;2024-01-30T08:00:07;1006;;;-0.6;94
84779;BME280;75010;50.866;20.620;2024-01-30T08:10:03;1006;;;2.4;83
84779;BME280;75010;50.866;20.620;2024-01-30T08:20:03;1006;;;2.4;83
84779;BME280;75010;50.866;20.620;2024-01-30T08:30:04;1006;;;5;71
84779;BME280;75010;50.866;20.620;2024-01-30T08:40:07;1006;;;8.1;62
84779;BME280;75010;50.866;20.620;2024-01-30T08:50:09;1006;;;8.1;62
84779;BME280;75010;50.866;20.620;2024-01-30T09:00:13;1006;;;7.7;61
84779;BME280;75010;50.866;20.620;2024-01-30T09:10:07;1006;;;7.7;61
84779;BME280;75010;50.866;20.620;2024-01-30T09:20:17;1006;;;8.5;58
84779;BME280;75010;50.866;20.620;2024-01-30T09:30:07;1006;;;8.5;58
84779;BME280;75010;50.866;20.620;2024-01-30T09:40:15;1006;;;9.7;55
84779;BME280;75010;50.866;20.620;2024-01-30T09:50:12;1005;;;10.8;52
84779;BME280;75010;50.866;20.620;2024-01-30T10:00:13;1005;;;10.9;48
84779;BME280;75010;50.866;20.620;2024-01-30T10:10:14;1005;;;8.7;52
84779;BME280;75010;50.866;20.620;2024-01-30T10:20:08;1005;;;8.2;53
84779;BME280;75010;50.866;20.620;2024-01-30T10:30:15;1005;;;8.2;53
84779;BME280;75010;50.866;20.620;2024-01-30T10:40:28;1005;;;8.6;52
84779;BME280;75010;50.866;20.620;2024-01-30T10:50:16;1005;;;8;53
84779;BME280;75010;50.866;20.620;2024-01-30T11:00:31;1005;;;8;53
84779;BME280;75010;50.866;20.620;2024-01-30T11:10:19;1005;;;8.1;52
84779;BME280;75010;50.866;20.620;2024-01-30T11:20:04;1005;;;8.1;52
84779;BME280;75010;50.866;20.620;2024-01-30T11:30:29;1004;;;8.9;50
84779;BME280;75010;50.866;20.620;2024-01-30T11:40:04;1004;;;8.9;50
84779;BME280;75010;50.866;20.620;2024-01-30T11:50:16;1004;;;10.5;45
84779;BME280;75010;50.866;20.620;2024-01-30T12:00:15;1004;;;9.8;45
84779;BME280;75010;50.866;20.620;2024-01-30T12:10:12;1004;;;9.2;45
84779;BME280;75010;50.866;20.620;2024-01-30T12:20:10;1004;;;9.2;45
84779;BME280;75010;50.866;20.620;2024-01-30T12:30:22;1004;;;9.2;46
84779;BME280;75010;50.866;20.620;2024-01-30T12:40:20;1004;;;9.2;47
84779;BME280;75010;50.866;20.620;2024-01-30T12:50:03;1004;;;9.2;47
84779;BME280;75010;50.866;20.620;2024-01-30T13:00:11;1004;;;9;49
84779;BME280;75010;50.866;20.620;2024-01-30T13:10:16;1004;;;9.9;47
84779;BME280;75010;50.866;20.620;2024-01-30T13:20:03;1004;;;9.9;47
84779;BME280;75010;50.866;20.620;2024-01-30T13:30:18;1003;;;12.7;41
84779;BME280;75010;50.866;20.620;2024-01-30T13:40:20;1003;;;12.7;41
84779;BME280;75010;50.866;20.620;2024-01-30T13:50:16;1003;;;14.1;37
84779;BME280;75010;50.866;20.620;2024-01-30T14:00:19;1003;;;14.1;37
84779;BME280;75010;50.866;20.620;2024-01-30T14:10:03;1003;;;13.2;38
84779;BME280;75010;50.866;20.620;2024-01-30T14:20:12;1003;;;13.2;38
84779;BME280;75010;50.866;20.620;2024-01-30T14:30:14;1003;;;10.7;43
84779;BME280;75010;50.866;20.620;2024-01-30T14:40:17;1003;;;9.3;47
84779;BME280;75010;50.866;20.620;2024-01-30T14:50:14;1003;;;9.3;47
84779;BME280;75010;50.866;20.620;2024-01-30T15:00:18;1003;;;9.1;47
84779;BME280;75010;50.866;20.620;2024-01-30T15:10:04;1003;;;9.1;47
84779;BME280;75010;50.866;20.620;2024-01-30T15:20:08;1003;;;7.9;51
84779;BME280;75010;50.866;20.620;2024-01-30T15:30:21;1003;;;7.9;51
84779;BME280;75010;50.866;20.620;2024-01-30T15:40:15;1003;;;6.6;56
84779;BME280;75010;50.866;20.620;2024-01-30T15:50:06;1004;;;5.2;61
84779;BME280;75010;50.866;20.620;2024-01-30T16:00:22;1004;;;5.2;61
84779;BME280;75010;50.866;20.620;2024-01-30T16:10:17;1003;;;3.9;67
84779;BME280;75010;50.866;20.620;2024-01-30T16:20:03;1003;;;3.9;67
84779;BME280;75010;50.866;20.620;2024-01-30T16:30:12;1003;;;3.4;70
84779;BME280;75010;50.866;20.620;2024-01-30T16:40:08;1003;;;3.4;70
84779;BME280;75010;50.866;20.620;2024-01-30T16:50:06;1003;;;2.7;75
84779;BME280;75010;50.866;20.620;2024-01-30T17:00:20;1003;;;2.7;75
84779;BME280;75010;50.866;20.620;2024-01-30T17:10:11;1003;;;2.2;78
84779;BME280;75010;50.866;20.620;2024-01-30T17:20:07;1003;;;1.7;80
84779;BME280;75010;50.866;20.620;2024-01-30T17:30:19;1003;;;1.7;80
84779;BME280;75010;50.866;20.620;2024-01-30T17:40:04;1003;;;1.5;82
84779;BME280;75010;50.866;20.620;2024-01-30T17:50:10;1003;;;1.3;83
84779;BME280;75010;50.866;20.620;2024-01-30T18:00:23;1003;;;1.3;83
84779;BME280;75010;50.866;20.620;2024-01-30T18:10:05;1003;;;1.2;84
84779;BME280;75010;50.866;20.620;2024-01-30T18:20:14;1003;;;1;85
84779;BME280;75010;50.866;20.620;2024-01-30T18:30:07;1003;;;0.9;85
84779;BME280;75010;50.866;20.620;2024-01-30T18:40:11;1003;;;0.6;87
84779;BME280;75010;50.866;20.620;2024-01-30T18:50:11;1003;;;0.5;87
84779;BME280;75010;50.866;20.620;2024-01-30T19:00:06;1003;;;0.5;87
84779;BME280;75010;50.866;20.620;2024-01-30T19:10:03;1003;;;0.5;88
84779;BME280;75010;50.866;20.620;2024-01-30T19:20:17;1003;;;0.4;88
84779;BME280;75010;50.866;20.620;2024-01-30T19:30:17;1003;;;0.3;89
84779;BME280;75010;50.866;20.620;2024-01-30T19:40:18;1003;;;0.2;90
84779;BME280;75010;50.866;20.620;2024-01-30T19:50:09;1003;;;0.1;90
84779;BME280;75010;50.866;20.620;2024-01-30T20:00:15;1003;;;0.1;90
84779;BME280;75010;50.866;20.620;2024-01-30T20:10:04;1003;;;0;90
84779;BME280;75010;50.866;20.620;2024-01-30T20:20:03;1003;;;-0.1;91
84779;BME280;75010;50.866;20.620;2024-01-30T20:30:19;1003;;;-0.2;91
84779;BME280;75010;50.866;20.620;2024-01-30T20:40:12;1003;;;-0.5;92
84779;BME280;75010;50.866;20.620;2024-01-30T20:50:04;1003;;;-0.6;92
84779;BME280;75010;50.866;20.620;2024-01-30T21:00:05;1003;;;-0.6;92
84779;BME280;75010;50.866;20.620;2024-01-30T21:10:12;1003;;;-0.8;92
84779;BME280;75010;50.866;20.620;2024-01-30T21:20:13;1003;;;-0.8;92
84779;BME280;75010;50.866;20.620;2024-01-30T21:30:03;1003;;;-0.8;93
84779;BME280;75010;50.866;20.620;2024-01-30T21:40:12;1003;;;-0.8;94
84779;BME280;75010;50.866;20.620;2024-01-30T21:50:11;1003;;;-0.8;94
84779;BME280;75010;50.866;20.620;2024-01-30T22:00:13;1003;;;-0.8;94
84779;BME280;75010;50.866;20.620;2024-01-30T22:10:17;1003;;;-0.8;94
84779;BME280;75010;50.866;20.620;2024-01-30T22:20:10;1003;;;-0.8;93
84779;BME280;75010;50.866;20.620;2024-01-30T22:30:03;1003;;;-0.8;93
84779;BME280;75010;50.866;20.620;2024-01-30T22:40:04;1003;;;-0.9;94
84779;BME280;75010;50.866;20.620;2024-01-30T22:50:04;1003;;;-0.9;94
84779;BME280;75010;50.866;20.620;2024-01-30T23:00:11;1003;;;-0.9;94
84779;BME280;75010;50.866;20.620;2024-01-30T23:10:04;1003;;;-1.1;94
84779;BME280;75010;50.866;20.620;2024-01-30T23:20:13;1003;;;-1.1;94
84779;BME280;75010;50.866;20.620;2024-01-30T23:30:10;1003;;;-1.1;94
84779;BME280;75010;50.866;20.620;2024-01-30T23:40:17;1003;;;-1.1;94
84779;BME280;75010;50.866;20.620;2024-01-30T23:50:04;1003;;;-1.2;94
